createdAt,value
2022-12-28T00:01:30.407Z,9.43
2022-12-28T00:04:00.833Z,10.07
2022-12-28T00:06:33.147Z,8.67
2022-12-28T00:09:02.819Z,9.40
2022-12-28T00:11:31.692Z,10.77
2022-12-28T00:14:02.593Z,12.80
2022-12-28T00:16:33.223Z,10.63
2022-12-28T00:19:05.632Z,14.40
2022-12-28T00:21:36.434Z,11.87
2022-12-28T00:24:05.768Z,15.83
2022-12-28T00:26:36.114Z,16.30
2022-12-28T00:29:05.895Z,13.87
2022-12-28T00:31:35.766Z,18.73
2022-12-28T00:34:05.001Z,34.40
2022-12-28T00:37:09.109Z,26.13
2022-12-28T00:39:23.945Z,29.03
2022-12-28T00:41:52.712Z,25.87
2022-12-28T00:44:21.659Z,33.00
2022-12-28T00:46:50.427Z,32.83
2022-12-28T00:49:19.027Z,25.93
2022-12-28T00:51:49.201Z,18.23
2022-12-28T00:54:18.216Z,18.60
2022-12-28T00:56:46.810Z,21.17
2022-12-28T00:59:15.696Z,19.67
2022-12-28T01:01:44.723Z,23.10
2022-12-28T01:04:13.521Z,21.07
2022-12-28T01:06:42.183Z,20.40
2022-12-28T01:09:12.395Z,21.63
2022-12-28T01:11:41.177Z,22.03
2022-12-28T01:14:10.065Z,22.30
2022-12-28T01:16:39.236Z,22.67
2022-12-28T01:19:09.363Z,24.50
2022-12-28T01:21:38.511Z,24.90
2022-12-28T01:24:08.893Z,27.37
2022-12-28T01:26:39.113Z,24.17
2022-12-28T01:29:08.032Z,22.77
2022-12-28T01:31:36.667Z,20.50
2022-12-28T01:34:05.516Z,24.20
2022-12-28T01:36:35.686Z,26.57
2022-12-28T01:39:08.450Z,25.77
2022-12-28T01:41:41.484Z,23.50
2022-12-28T01:45:07.924Z,24.23
2022-12-28T01:47:37.083Z,24.63
2022-12-28T01:50:10.552Z,25.87
2022-12-28T01:52:42.995Z,26.27
2022-12-28T01:55:16.032Z,23.27
2022-12-28T01:57:49.420Z,24.37
2022-12-28T02:00:19.007Z,23.87
2022-12-28T02:02:53.674Z,26.13
2022-12-28T02:05:32.957Z,23.57
2022-12-28T02:08:07.622Z,23.53
2022-12-28T02:10:40.760Z,24.93
2022-12-28T02:13:17.063Z,27.50
2022-12-28T02:15:46.704Z,26.37
2022-12-28T02:18:17.549Z,23.87
2022-12-28T02:21:03.118Z,26.20
2022-12-28T02:23:47.390Z,26.73
2022-12-28T02:26:37.297Z,23.83
2022-12-28T02:29:43.377Z,23.67
2022-12-28T02:32:24.147Z,19.90
2022-12-28T02:35:00.447Z,21.43
2022-12-28T02:37:33.991Z,19.03
2022-12-28T02:40:06.477Z,17.83
2022-12-28T02:42:38.188Z,18.20
2022-12-28T02:45:45.765Z,18.30
2022-12-28T02:48:32.022Z,17.13
2022-12-28T02:51:13.124Z,15.87
2022-12-28T02:53:57.648Z,14.97
2022-12-28T02:56:36.909Z,16.23
2022-12-28T02:59:32.762Z,14.83
2022-12-28T03:02:27.201Z,14.57
2022-12-28T03:05:16.522Z,13.77
2022-12-28T03:11:06.133Z,11.60
2022-12-28T03:13:45.842Z,11.93
2022-12-28T03:16:19.914Z,11.10
2022-12-28T03:19:14.610Z,12.27
2022-12-28T03:22:01.802Z,10.60
2022-12-28T03:24:50.098Z,8.73
2022-12-28T03:27:37.408Z,9.53
2022-12-28T03:30:30.708Z,8.90
2022-12-28T03:33:00.136Z,9.10
2022-12-28T03:35:37.952Z,7.73
2022-12-28T03:38:07.074Z,10.00
2022-12-28T03:40:51.478Z,11.30
2022-12-28T03:43:40.934Z,9.27
2022-12-28T03:46:16.717Z,7.93
2022-12-28T03:48:46.602Z,8.23
2022-12-28T03:51:21.305Z,7.70
2022-12-28T03:53:50.332Z,5.90
2022-12-28T03:56:21.485Z,7.57
2022-12-28T03:58:50.785Z,8.23
2022-12-28T04:01:19.560Z,6.93
2022-12-28T04:03:48.374Z,10.27
2022-12-28T04:06:21.099Z,9.47
2022-12-28T04:08:49.831Z,10.67
2022-12-28T04:11:18.526Z,9.67
2022-12-28T04:13:47.288Z,10.50
2022-12-28T04:16:16.671Z,6.77
2022-12-28T04:18:45.685Z,8.87
2022-12-28T04:21:15.877Z,5.83
2022-12-28T04:23:49.245Z,6.53
2022-12-28T04:26:19.099Z,7.27
2022-12-28T04:28:48.323Z,6.20
2022-12-28T04:31:16.821Z,6.63
2022-12-28T04:33:45.294Z,5.03
2022-12-28T04:36:15.422Z,5.70
2022-12-28T04:38:44.456Z,5.63
2022-12-28T04:41:14.920Z,4.60
2022-12-28T04:43:43.581Z,7.93
2022-12-28T04:46:15.893Z,9.07
2022-12-28T04:48:45.049Z,8.83
2022-12-28T04:51:22.084Z,7.00
2022-12-28T04:53:50.938Z,8.83
2022-12-28T04:56:42.553Z,8.17
2022-12-28T04:59:11.293Z,8.43
2022-12-28T05:01:40.199Z,9.63
2022-12-28T05:04:09.014Z,9.07
2022-12-28T05:06:37.764Z,12.43
2022-12-28T05:09:06.461Z,5.60
2022-12-28T05:11:35.091Z,11.30
2022-12-28T05:14:05.406Z,20.13
2022-12-28T05:16:33.831Z,10.80
2022-12-28T05:19:02.624Z,11.43
2022-12-28T05:21:31.683Z,9.13
2022-12-28T05:24:00.887Z,6.27
2022-12-28T05:26:30.952Z,6.70
2022-12-28T05:28:59.964Z,7.07
2022-12-28T05:31:30.607Z,6.37
2022-12-28T05:34:23.780Z,6.30
2022-12-28T05:36:52.494Z,7.50
2022-12-28T05:39:21.081Z,5.97
2022-12-28T05:41:49.757Z,7.10
2022-12-28T05:44:18.543Z,5.70
2022-12-28T05:46:48.634Z,6.27
2022-12-28T05:49:17.187Z,7.67
2022-12-28T05:51:46.030Z,8.50
2022-12-28T05:54:14.499Z,8.70
2022-12-28T05:56:43.245Z,6.90
2022-12-28T05:59:13.439Z,9.00
2022-12-28T06:01:43.242Z,10.37
2022-12-28T06:04:17.843Z,8.53
2022-12-28T06:06:47.588Z,8.20
2022-12-28T06:09:16.791Z,8.47
2022-12-28T06:11:46.306Z,6.70
2022-12-28T06:14:14.942Z,7.13
2022-12-28T06:16:44.474Z,10.57
2022-12-28T06:19:16.145Z,12.60
2022-12-28T06:21:44.899Z,14.17
2022-12-28T06:24:14.557Z,8.80
2022-12-28T06:26:43.301Z,9.33
2022-12-28T06:29:12.247Z,9.93
2022-12-28T06:31:42.966Z,15.93
2022-12-28T06:34:11.996Z,14.07
2022-12-28T06:36:43.876Z,16.03
2022-12-28T06:39:14.511Z,17.83
2022-12-28T06:41:43.716Z,72.20
2022-12-28T06:44:44.370Z,66.57
2022-12-28T06:47:13.804Z,36.07
2022-12-28T06:49:42.549Z,37.97
2022-12-28T06:52:12.835Z,18.30
2022-12-28T06:54:41.484Z,14.37
2022-12-28T06:57:15.105Z,12.50
2022-12-28T07:00:09.667Z,15.50
2022-12-28T07:02:38.435Z,19.67
2022-12-28T07:05:07.802Z,12.50
2022-12-28T07:07:37.825Z,10.77
2022-12-28T07:10:07.490Z,8.50
2022-12-28T07:12:36.011Z,11.17
2022-12-28T07:15:04.836Z,11.77
2022-12-28T07:17:33.540Z,12.13
2022-12-28T07:20:02.044Z,10.13
2022-12-28T07:22:30.773Z,9.90
2022-12-28T07:25:01.026Z,10.03
2022-12-28T07:27:30.070Z,6.30
2022-12-28T07:29:59.159Z,5.67
2022-12-28T07:32:27.785Z,5.73
2022-12-28T07:34:56.330Z,5.37
2022-12-28T07:37:24.972Z,6.77
2022-12-28T07:39:53.648Z,5.93
2022-12-28T07:42:24.682Z,6.30
2022-12-28T07:44:53.365Z,7.97
2022-12-28T07:47:21.972Z,7.83
2022-12-28T07:49:50.622Z,6.20
2022-12-28T07:52:19.346Z,6.80
2022-12-28T07:54:48.007Z,9.70
2022-12-28T07:57:16.659Z,11.33
2022-12-28T07:59:47.228Z,8.13
2022-12-28T08:02:16.167Z,9.23
2022-12-28T08:04:48.843Z,7.73
2022-12-28T08:07:45.928Z,12.67
2022-12-28T08:10:14.589Z,11.03
2022-12-28T08:13:02.247Z,15.63
2022-12-28T08:15:32.547Z,13.77
2022-12-28T08:18:01.290Z,13.70
2022-12-28T08:20:55.163Z,15.60
2022-12-28T08:23:42.597Z,12.30
2022-12-28T08:26:12.996Z,18.03
2022-12-28T08:28:43.584Z,19.83
2022-12-28T08:31:15.133Z,19.53
2022-12-28T08:33:44.028Z,17.93
2022-12-28T08:36:13.176Z,19.63
2022-12-28T08:38:43.420Z,12.83
2022-12-28T08:41:15.098Z,10.10
2022-12-28T08:44:09.357Z,10.07
2022-12-28T08:46:40.993Z,9.33
2022-12-28T08:49:09.884Z,7.73
2022-12-28T08:51:41.873Z,6.70
2022-12-28T08:54:11.385Z,7.47
2022-12-28T08:56:42.722Z,6.13
2022-12-28T08:59:14.698Z,6.63
2022-12-28T09:01:45.220Z,6.10
2022-12-28T09:04:17.947Z,4.47
2022-12-28T09:06:47.012Z,4.87
2022-12-28T09:09:17.783Z,6.80
2022-12-28T09:11:47.141Z,5.87
2022-12-28T09:14:23.617Z,6.53
2022-12-28T09:17:01.878Z,5.23
2022-12-28T09:19:30.593Z,5.73
2022-12-28T09:21:59.232Z,6.27
2022-12-28T09:24:28.102Z,4.83
2022-12-28T09:26:56.944Z,5.03
2022-12-28T09:29:25.666Z,4.13
2022-12-28T09:31:58.024Z,4.03
2022-12-28T09:34:52.395Z,3.90
2022-12-28T09:37:20.912Z,4.13
2022-12-28T09:39:49.472Z,5.13
2022-12-28T09:42:24.390Z,5.20
2022-12-28T09:45:02.687Z,3.20
2022-12-28T09:48:03.403Z,5.47
2022-12-28T09:50:35.291Z,4.63
2022-12-28T09:53:26.950Z,5.73
2022-12-28T09:56:01.691Z,4.33
2022-12-28T09:58:31.791Z,4.73
2022-12-28T10:01:02.322Z,4.70
2022-12-28T10:03:37.899Z,3.50
2022-12-28T10:06:13.603Z,4.13
2022-12-28T10:08:46.006Z,4.90
2022-12-28T10:11:19.212Z,5.53
2022-12-28T10:13:55.148Z,4.00
2022-12-28T10:16:25.592Z,5.70
2022-12-28T10:19:07.662Z,6.77
2022-12-28T10:21:37.147Z,5.80
2022-12-28T10:26:59.556Z,10.13
2022-12-28T10:29:28.961Z,5.80
2022-12-28T10:32:23.420Z,8.37
2022-12-28T10:35:07.180Z,9.77
2022-12-28T10:37:44.627Z,6.80
2022-12-28T10:40:27.366Z,5.50
2022-12-28T10:42:58.124Z,8.80
2022-12-28T10:45:35.841Z,7.17
2022-12-28T10:48:11.218Z,7.10
2022-12-28T10:50:48.367Z,7.77
2022-12-28T10:53:32.481Z,7.07
2022-12-28T10:56:07.401Z,7.23
2022-12-28T10:58:36.696Z,6.93
2022-12-28T11:01:08.056Z,10.87
2022-12-28T11:03:38.384Z,8.70
2022-12-28T11:06:27.515Z,8.23
2022-12-28T11:09:08.068Z,6.27
2022-12-28T11:11:36.716Z,5.50
2022-12-28T11:14:13.925Z,6.03
2022-12-28T11:16:43.225Z,6.73
2022-12-28T11:19:37.101Z,5.37
2022-12-28T11:22:19.550Z,7.23
2022-12-28T11:24:48.229Z,9.17
2022-12-28T11:27:19.982Z,8.33
2022-12-28T11:29:50.569Z,11.27
2022-12-28T11:32:25.646Z,10.70
2022-12-28T11:34:56.026Z,13.63
2022-12-28T11:37:26.456Z,11.23
2022-12-28T11:39:55.733Z,7.37
2022-12-28T11:42:56.043Z,8.50
2022-12-28T11:45:55.359Z,9.77
2022-12-28T11:48:55.059Z,7.60
2022-12-28T11:51:25.369Z,8.30
2022-12-28T11:53:59.105Z,7.60
2022-12-28T11:56:29.535Z,10.63
2022-12-28T11:59:23.647Z,10.27
2022-12-28T12:01:57.376Z,14.77
2022-12-28T12:04:38.084Z,16.93
2022-12-28T12:07:31.112Z,14.30
2022-12-28T12:10:22.320Z,13.37
2022-12-28T12:12:53.961Z,7.77
2022-12-28T12:15:27.542Z,9.93
2022-12-28T12:18:02.454Z,11.43
2022-12-28T12:20:47.898Z,16.60
2022-12-28T12:23:26.197Z,21.10
2022-12-28T12:25:59.475Z,16.63
2022-12-28T12:28:37.137Z,16.07
2022-12-28T12:31:31.256Z,9.63
2022-12-28T12:34:07.058Z,10.70
2022-12-28T12:37:08.497Z,13.03
2022-12-28T12:40:04.970Z,12.73
2022-12-28T12:42:47.434Z,9.67
2022-12-28T12:45:27.960Z,36.37
2022-12-28T12:48:29.284Z,28.40
2022-12-28T12:51:08.985Z,13.97
2022-12-28T12:53:55.177Z,46.27
2022-12-28T12:56:42.928Z,23.20
2022-12-28T12:59:28.243Z,22.37
2022-12-28T13:02:14.197Z,14.47
2022-12-28T13:04:46.257Z,12.93
2022-12-28T13:07:20.534Z,12.27
2022-12-28T13:09:50.639Z,14.03
2022-12-28T13:12:21.446Z,11.60
2022-12-28T13:14:58.759Z,12.97
2022-12-28T13:17:27.884Z,11.50
2022-12-28T13:20:10.908Z,15.07
2022-12-28T13:22:46.691Z,13.03
2022-12-28T13:25:26.126Z,19.13
2022-12-28T13:27:54.759Z,10.60
2022-12-28T13:30:26.544Z,16.97
2022-12-28T13:32:56.972Z,19.90
2022-12-28T13:35:27.724Z,17.83
2022-12-28T13:38:21.310Z,25.30
2022-12-28T13:40:54.786Z,114.33
2022-12-28T13:43:58.769Z,20.40
2022-12-28T13:46:30.129Z,15.87
2022-12-28T13:48:59.790Z,19.57
2022-12-28T13:51:29.178Z,21.40
2022-12-28T13:54:01.641Z,19.07
2022-12-28T13:56:32.445Z,13.77
2022-12-28T13:59:04.777Z,18.27
2022-12-28T14:01:37.953Z,19.27
2022-12-28T14:04:50.655Z,21.17
2022-12-28T14:06:58.262Z,18.07
2022-12-28T14:09:27.483Z,18.03
2022-12-28T14:11:57.209Z,15.33
2022-12-28T14:14:26.393Z,12.93
2022-12-28T14:16:57.471Z,12.47
2022-12-28T14:19:26.321Z,12.87
2022-12-28T14:21:54.929Z,17.77
2022-12-28T14:24:23.613Z,23.37
2022-12-28T14:26:58.091Z,26.07
2022-12-28T14:29:31.480Z,14.73
2022-12-28T14:32:04.294Z,13.10
2022-12-28T14:34:35.927Z,12.17
2022-12-28T14:37:10.284Z,10.67
2022-12-28T14:39:44.628Z,16.13
2022-12-28T14:42:21.789Z,16.87
2022-12-28T14:44:54.437Z,15.83
2022-12-28T14:47:37.523Z,14.47
2022-12-28T14:50:18.335Z,13.00
2022-12-28T14:52:48.683Z,12.87
2022-12-28T14:55:31.052Z,9.93
2022-12-28T14:58:03.531Z,10.53
2022-12-28T15:00:34.403Z,9.53
2022-12-28T15:03:20.460Z,13.23
2022-12-28T15:05:52.607Z,13.10
2022-12-28T15:08:23.175Z,15.33
2022-12-28T15:11:09.163Z,13.83
2022-12-28T15:13:37.952Z,15.67
2022-12-28T15:16:07.379Z,15.53
2022-12-28T15:18:44.832Z,13.57
2022-12-28T15:21:35.530Z,12.90
2022-12-28T15:24:04.084Z,16.80
2022-12-28T15:26:32.697Z,18.17
2022-12-28T15:29:06.333Z,16.63
2022-12-28T15:31:35.323Z,15.60
2022-12-28T15:34:33.946Z,20.70
2022-12-28T15:37:02.721Z,18.87
2022-12-28T15:39:32.218Z,17.93
2022-12-28T15:42:00.776Z,20.23
2022-12-28T15:44:29.378Z,31.10
2022-12-28T15:46:57.937Z,65.63
2022-12-28T15:49:26.923Z,64.20
2022-12-28T15:51:57.192Z,58.10
2022-12-28T15:54:25.822Z,46.50
2022-12-28T15:56:55.604Z,45.50
2022-12-28T15:59:24.698Z,34.37
2022-12-28T16:01:53.518Z,25.77
2022-12-28T16:04:22.286Z,19.33
2022-12-28T16:06:51.137Z,16.10
2022-12-28T16:09:21.397Z,16.47
2022-12-28T16:11:54.855Z,21.90
2022-12-28T16:14:24.317Z,38.57
2022-12-28T16:16:53.052Z,33.60
2022-12-28T16:19:21.994Z,38.10
2022-12-28T16:21:52.237Z,25.73
2022-12-28T16:24:22.558Z,27.43
2022-12-28T16:26:51.234Z,22.73
2022-12-28T16:29:19.819Z,28.20
2022-12-28T16:31:48.626Z,24.73
2022-12-28T16:34:18.793Z,26.77
2022-12-28T16:37:16.172Z,18.33
2022-12-28T16:39:46.518Z,14.97
2022-12-28T16:42:15.157Z,25.13
2022-12-28T16:44:43.916Z,27.77
2022-12-28T16:47:12.463Z,27.57
2022-12-28T16:49:42.564Z,28.20
2022-12-28T16:53:01.479Z,25.70
2022-12-28T16:55:33.152Z,31.67
2022-12-28T16:58:01.845Z,24.63
2022-12-28T17:00:30.322Z,26.90
2022-12-28T17:02:58.858Z,21.90
2022-12-28T17:05:27.641Z,17.87
2022-12-28T17:07:56.278Z,23.13
2022-12-28T17:10:24.915Z,24.93
2022-12-28T17:12:55.245Z,26.77
2022-12-28T17:15:49.958Z,21.23
2022-12-28T17:18:37.302Z,53.80
2022-12-28T17:21:10.544Z,28.90
2022-12-28T17:23:40.614Z,20.60
2022-12-28T17:26:09.796Z,18.50
2022-12-28T17:28:40.168Z,20.00
2022-12-28T17:31:10.768Z,19.57
2022-12-28T17:34:07.336Z,15.97
2022-12-28T17:36:35.961Z,15.27
2022-12-28T17:39:04.748Z,15.07
2022-12-28T17:41:34.049Z,35.23
2022-12-28T17:44:04.935Z,28.83
2022-12-28T17:46:37.955Z,28.27
2022-12-28T17:49:06.927Z,31.67
2022-12-28T17:51:36.380Z,35.20
2022-12-28T17:54:05.595Z,36.97
2022-12-28T17:56:34.294Z,27.10
2022-12-28T17:59:14.808Z,42.17
2022-12-28T18:01:44.143Z,37.03
2022-12-28T18:04:12.971Z,47.47
2022-12-28T18:06:42.065Z,39.27
2022-12-28T18:09:10.715Z,33.67
2022-12-28T18:11:39.400Z,27.73
2022-12-28T18:14:13.130Z,21.10
2022-12-28T18:16:42.045Z,20.30
2022-12-28T18:19:10.893Z,25.30
2022-12-28T18:21:41.326Z,31.43
2022-12-28T18:24:13.375Z,35.90
2022-12-28T18:26:42.060Z,35.10
2022-12-28T18:29:12.418Z,30.70
2022-12-28T18:32:06.641Z,30.40
2022-12-28T18:34:58.203Z,30.60
2022-12-28T18:37:26.832Z,30.43
2022-12-28T18:40:20.537Z,32.30
2022-12-28T18:42:54.947Z,34.20
2022-12-28T18:45:25.210Z,45.40
2022-12-28T18:47:53.629Z,79.73
2022-12-28T18:50:22.353Z,63.80
2022-12-28T18:52:51.222Z,42.63
2022-12-28T18:55:19.926Z,36.47
2022-12-28T18:58:17.209Z,33.73
2022-12-28T19:00:47.917Z,31.97
2022-12-28T19:03:16.629Z,17.57
2022-12-28T19:05:45.400Z,19.10
2022-12-28T19:08:13.955Z,18.97
2022-12-28T19:10:50.239Z,20.97
2022-12-28T19:13:18.908Z,58.50
2022-12-28T19:15:49.339Z,65.53
2022-12-28T19:18:17.980Z,50.27
2022-12-28T19:20:46.640Z,39.37
2022-12-28T19:23:15.345Z,24.53
2022-12-28T19:25:43.953Z,22.60
2022-12-28T19:28:12.377Z,24.07
2022-12-28T19:30:40.948Z,22.63
2022-12-28T19:33:11.386Z,21.20
2022-12-28T19:35:39.911Z,18.03
2022-12-28T19:38:08.427Z,17.47
2022-12-28T19:40:37.032Z,18.10
2022-12-28T19:43:05.689Z,19.43
2022-12-28T19:45:34.564Z,28.20
2022-12-28T19:48:03.416Z,25.83
2022-12-28T19:50:34.110Z,17.83
2022-12-28T19:53:02.839Z,19.27
2022-12-28T19:55:34.356Z,16.97
2022-12-28T19:58:03.143Z,19.77
2022-12-28T20:00:31.989Z,21.47
2022-12-28T20:03:00.677Z,34.33
2022-12-28T20:05:46.026Z,32.67
2022-12-28T20:08:14.946Z,31.03
2022-12-28T20:10:43.663Z,42.63
2022-12-28T20:13:12.420Z,24.63
2022-12-28T20:15:43.458Z,24.47
2022-12-28T20:18:12.257Z,27.93
2022-12-28T20:21:09.365Z,35.87
2022-12-28T20:23:31.327Z,28.27
2022-12-28T20:26:00.241Z,26.00
2022-12-28T20:28:29.167Z,30.30
2022-12-28T20:31:02.123Z,27.90
2022-12-28T20:33:33.573Z,26.67
2022-12-28T20:36:22.442Z,26.00
2022-12-28T20:38:52.802Z,34.17
2022-12-28T20:41:40.823Z,20.40
2022-12-28T20:44:12.311Z,23.47
2022-12-28T20:46:41.680Z,26.93
2022-12-28T20:49:36.026Z,35.23
2022-12-28T20:52:04.868Z,50.07
2022-12-28T20:54:35.367Z,45.47
2022-12-28T20:57:03.976Z,44.37
2022-12-28T20:59:34.104Z,43.77
2022-12-28T21:02:03.507Z,58.23
2022-12-28T21:04:32.717Z,55.37
2022-12-28T21:07:01.471Z,48.20
2022-12-28T21:09:30.349Z,41.93
2022-12-28T21:12:00.789Z,38.40
2022-12-28T21:14:29.425Z,42.20
2022-12-28T21:16:58.024Z,178.80
2022-12-28T21:19:27.723Z,288.73
2022-12-28T21:21:56.476Z,145.70
2022-12-28T21:24:24.982Z,53.17
2022-12-28T21:26:53.683Z,41.60
2022-12-28T21:29:26.096Z,46.27
2022-12-28T21:31:55.530Z,40.37
2022-12-28T21:34:28.014Z,41.27
2022-12-28T21:36:56.977Z,36.60
2022-12-28T21:39:25.603Z,41.70
2022-12-28T21:41:54.787Z,53.47
2022-12-28T21:44:50.094Z,38.53
2022-12-28T21:47:18.935Z,35.80
2022-12-28T21:49:47.553Z,35.40
2022-12-28T21:52:16.454Z,30.93
2022-12-28T21:54:45.097Z,33.50
2022-12-28T21:57:14.388Z,34.17
2022-12-28T21:59:43.220Z,37.60
2022-12-28T22:02:34.799Z,33.47
2022-12-28T22:05:21.761Z,36.50
2022-12-28T22:08:12.668Z,34.07
2022-12-28T22:10:59.250Z,31.27
2022-12-28T22:13:27.889Z,34.70
2022-12-28T22:15:58.642Z,32.40
2022-12-28T22:19:00.333Z,35.43
2022-12-28T22:21:17.633Z,33.33
2022-12-28T22:23:46.244Z,31.30
2022-12-28T22:26:14.927Z,29.50
2022-12-28T22:28:43.908Z,31.43
2022-12-28T22:31:32.025Z,33.97
2022-12-28T22:34:27.162Z,33.97
2022-12-28T22:36:55.820Z,30.33
2022-12-28T22:39:24.592Z,32.03
2022-12-28T22:41:53.510Z,28.33
2022-12-28T22:44:21.970Z,36.53
2022-12-28T22:46:50.859Z,32.93
2022-12-28T22:49:19.724Z,40.47
2022-12-28T22:51:50.857Z,39.27
2022-12-28T22:54:19.678Z,31.73
2022-12-28T22:57:13.665Z,33.87
2022-12-28T22:59:42.518Z,33.37
2022-12-28T23:02:11.737Z,28.90
2022-12-28T23:04:40.475Z,34.07
2022-12-28T23:07:10.498Z,29.83
2022-12-28T23:09:39.233Z,28.43
2022-12-28T23:12:08.129Z,29.50
2022-12-28T23:14:53.826Z,33.07
2022-12-28T23:17:24.027Z,36.27
2022-12-28T23:20:09.833Z,27.50
2022-12-28T23:22:57.123Z,28.37
2022-12-28T23:25:44.608Z,33.80
2022-12-28T23:28:15.777Z,29.97
2022-12-28T23:30:46.717Z,29.80
2022-12-28T23:33:15.607Z,27.43
2022-12-28T23:35:48.831Z,31.90
2022-12-28T23:38:19.028Z,32.77
2022-12-28T23:41:07.448Z,30.67
2022-12-28T23:43:36.313Z,30.87
2022-12-28T23:46:05.912Z,34.23
2022-12-28T23:48:34.386Z,27.77
2022-12-28T23:51:08.681Z,37.93
2022-12-28T23:53:39.013Z,37.63
2022-12-28T23:56:08.581Z,35.77
2022-12-28T23:58:37.339Z,33.70
